SR-SS   ¦   EYVI 0252-1741UTC    ¦   EYKA 0257-1745UTC    ¦   EYSA 0257-1752UTC    ¦   EYPA 0305-1802UTC


***********************WWW.PILOTUMOKYKLA.LT**********************
****************************WX START*****************************

EYVI - Vilnius International (ATIS: 125.8)
(VFR) EYVI 240150Z 12006KT CAVOK 09/M04 Q1027 NOSIG
(VFR) EYVI 240120Z 12006KT CAVOK 09/M04 Q1027 NOSIG
(VFR) EYVI 240050Z 12006KT CAVOK 10/M04 Q1027 NOSIG

Couldn't resolve host 'weather.noaa.gov'=============================================================

EYKA - Kaunas International (ATIS: 129.05)
(VFR) EYKA 240150Z 11006KT CAVOK 07/M03 Q1026
(VFR) EYKA 240120Z 11005KT CAVOK 07/M03 Q1026
(VFR) EYKA 240050Z 09006KT CAVOK 06/M03 Q1026

Couldn't resolve host 'weather.noaa.gov'=============================================================

EYSA - Siauliai International (Military) (ATIS: 120.75)
(VFR) EYSA 240150Z 11004KT 9999 FEW036 06/M02 Q1026 BLU NOSIG
() EYSA 240120Z AUTO 12006KT 9999NDV SCT036 06/M02 Q1026
() EYSA 240050Z AUTO 10006KT 9999NDV FEW050 07/M02 Q1026

Couldn't resolve host 'weather.noaa.gov'=============================================================

EYPA - Palanga International (ATIS: 127.8)
(VFR) EYPA 240150Z AUTO 11008KT 9999 SCT078/// 11/M02 Q1023
(VFR) EYPA 240120Z AUTO 11008KT 9999 SCT082/// 11/M02 Q1023
(VFR) EYPA 240050Z AUTO 11008KT 9999 FEW083/// 11/M02 Q1023

Couldn't resolve host 'weather.noaa.gov'=============================================================

UMMG - Hrodna International (ATIS: 135.02)
(VFR) UMMG 240200Z 11003MPS CAVOK 06/M02 Q1025 NOSIG
(VFR) UMMG 240100Z 11003MPS CAVOK 07/M02 Q1025 NOSIG

Couldn't resolve host 'weather.noaa.gov'=============================================================

NOTE: WX Report includes all metar's issued in last 1:30h and latest TAF's.

******************************WX END*********************************
***********************************************************************